Página principal
METAR-TAF:

METAR-TAF

Aeroportos :

Larnaca, Chipre

Aeroporto Internacional de Lárnaca

latitude: 34-53N, longitude: 033-38E, altura: 2 m

Observação actual do tempo

O boletim foi feito há 32 minutos, às 19:30 UTC
Vento 8 kt de noroeste
Temperatura 15°C
Humidade 72%
Pressão 1019 hPa
Visibilidade 10 km ou mais
sem nuvens abaixo de 1500 metros e sem cumulonimbus

METAR: LCLK 121930Z 32008KT CAVOK 15/10 Q1019 NOSIG

Hora: 22:02 (20:02 UTC)

Previsão

O boletim foi feito há 2 horas e 32 minutos, às 17:30 UTC
Previsão válida de 12 às 18 UTC a 13 às 18 UTC
Vento 9 kt de nor-noroeste
Visibilidade 10 km ou mais
Poucas nuvensa uma altura de 3000 ft

TAF: LCLK 121730Z 1218/1318 33009KT 9999 FEW030

Observações e previsões do tempo de mais de 4000 aeroportos (mensagens METAR e TAF).

As estações disponíveis são os pontos amarelos e vermelhos sobre o mapa.

Mova o rato sobre o mapa para ver o nome da estação.

Depois clique no ponto para visualizar as observações e previsões meteorológicas.

Para alterar o mapa : clique nos botões verdes com uma cruz preta para aumentar o zoom; no botão verde com uma pitada de zoom; ou nas setas verdes para mapas adjacentes.


METAR-TAF: